Terminal Aerodrome Forecast
Issued by NWS

Home | Current Version | Previous Version | Graphics & Text | Print | Product List | Glossary Off
Versions: 1 2 3 4 5 6 7 8 9 10 11 12 13 14 15 16 17 18

258
FTUS43 KIWX 201730
TAFSBN
TAF
KSBN 201730Z 2018/2118 21017G27KT P6SM SCT250
     FM210000 21016KT P6SM SCT250 WS020/24055KT
     FM211200 24013G21KT P6SM SCT120=

USA.gov is the U.S. government's official web portal to all federal, state and local government web resources and services.